Latest Weather Observations for St Kilda Harbour RMYS

IDV60801

Issued at 6:05 pm EDT Saturday 29 November 2014 (issued every 30 minutes, with the page automatically refreshed every 10 minutes)

About weather observations | Map of weather stations | Latest weather observations for VIC | Other Formats
Station Details ID: 086220 Name: ST KILDA HARBOUR - RMYS Lat: -37.86 Lon: 144.96 Height: 6.4 m
Data from the previous 72 hours. | See also: Recent months for locations in Victoria
Date/Time
EDT
Temp
°C
App
Temp
°C
Dew
Point
Rel
Hum
%
Delta-T
°C
Wind Press
QNH
hPa
Press
MSL
hPa
Rain
since 9 am
mm
Dir
 
Spd
km/h
Gust
km/h
Spd
kts
Gust
kts
29/06:00pm - - - - - S 35 39 19 21 - - -
29/05:30pm - - - - - S 32 37 17 20 - - -
29/05:00pm - - - - - S 33 39 18 21 - - -
29/04:30pm - - - - - S 32 39 17 21 - - -
29/04:00pm - - - - - S 30 33 16 18 - - -
29/03:30pm - - - - - S 30 37 16 20 - - -
29/03:00pm - - - - - S 30 33 16 18 - - -
29/02:30pm - - - - - SSW 22 26 12 14 - - -
29/02:00pm - - - - - SSW 19 22 10 12 - - -
29/01:30pm - - - - - SSW 19 20 10 11 - - -
29/01:00pm - - - - - S 15 19 8 10 - - -
29/12:30pm - - - - - SSW 19 22 10 12 - - -
29/12:00pm - - - - - S 15 19 8 10 - - -
29/11:30am - - - - - S 17 19 9 10 - - -
29/11:00am - - - - - S 13 17 7 9 - - -
29/10:30am - - - - - SSW 13 15 7 8 - - -
29/10:00am - - - - - SW 9 13 5 7 - - -
29/09:30am - - - - - SW 7 11 4 6 - - -
29/09:00am - - - - - S 6 7 3 4 - - -
29/08:30am - - - - - N 4 6 2 3 - - -
29/08:00am - - - - - ENE 6 9 3 5 - - -
29/07:30am - - - - - ENE 6 9 3 5 - - -
29/07:00am - - - - - E 7 11 4 6 - - -
29/06:30am - - - - - E 7 11 4 6 - - -
29/06:00am - - - - - ESE 9 15 5 8 - - -
29/05:30am - - - - - ESE 9 13 5 7 - - -
29/05:00am - - - - - E 9 11 5 6 - - -
29/04:30am - - - - - E 9 13 5 7 - - -
29/04:00am - - - - - ESE 7 11 4 6 - - -
29/03:30am - - - - - SE 7 11 4 6 - - -
29/03:00am - - - - - SE 6 9 3 5 - - -
29/02:30am - - - - - ESE 6 7 3 4 - - -
29/02:00am - - - - - ESE 6 7 3 4 - - -
29/01:30am - - - - - ESE 6 9 3 5 - - -
29/01:00am - - - - - ESE 7 11 4 6 - - -
29/12:30am - - - - - SE 11 15 6 8 - - -
29/12:00am - - - - - SSE 11 15 6 8 - - -
 
Date/Time
EDT
Temp
°C
App
Temp
°C
Dew
Point
Rel
Hum
%
Delta-T
°C
Wind Press
QNH
hPa
Press
MSL
hPa
Rain
since 9 am
mm
Dir
 
Spd
km/h
Gust
km/h
Spd
kts
Gust
kts
28/11:30pm - - - - - SSE 13 17 7 9 - - -
28/11:00pm - - - - - SE 9 11 5 6 - - -
28/10:30pm - - - - - SE 11 15 6 8 - - -
28/10:00pm - - - - - SE 15 19 8 10 - - -
28/09:30pm - - - - - ESE 15 19 8 10 - - -
28/09:00pm - - - - - SSE 28 32 15 17 - - -
28/08:30pm - - - - - SSE 32 37 17 20 - - -
28/08:00pm - - - - - S 35 41 19 22 - - -
28/07:30pm - - - - - S 35 39 19 21 - - -
28/07:00pm - - - - - S 33 37 18 20 - - -
28/06:30pm - - - - - S 32 37 17 20 - - -
28/06:00pm - - - - - S 33 39 18 21 - - -
28/05:30pm - - - - - S 33 37 18 20 - - -
28/05:00pm - - - - - S 32 37 17 20 - - -
28/04:30pm - - - - - S 32 37 17 20 - - -
28/04:00pm - - - - - S 30 35 16 19 - - -
28/03:30pm - - - - - S 24 28 13 15 - - -
28/03:00pm - - - - - S 22 26 12 14 - - -
28/02:30pm - - - - - S 22 30 12 16 - - -
28/02:00pm - - - - - S 22 30 12 16 - - -
28/01:30pm - - - - - SSW 20 24 11 13 - - -
28/01:00pm - - - - - SSW 22 26 12 14 - - -
28/12:30pm - - - - - SSW 20 26 11 14 - - -
28/12:00pm - - - - - SSW 20 24 11 13 - - -
28/11:30am - - - - - S 15 19 8 10 - - -
28/11:00am - - - - - SSW 13 17 7 9 - - -
28/10:30am - - - - - S 7 11 4 6 - - -
28/10:00am - - - - - SSE 7 17 4 9 - - -
28/09:30am - - - - - SE 6 11 3 6 - - -
28/09:00am - - - - - ESE 11 17 6 9 - - -
28/08:30am - - - - - E 11 15 6 8 - - -
28/08:00am - - - - - ESE 11 17 6 9 - - -
28/07:30am - - - - - ESE 9 17 5 9 - - -
28/07:00am - - - - - ESE 11 15 6 8 - - -
28/06:30am - - - - - ESE 13 17 7 9 - - -
28/06:00am - - - - - ESE 9 15 5 8 - - -
28/05:30am - - - - - ESE 9 13 5 7 - - -
28/05:00am - - - - - ESE 9 13 5 7 - - -
28/04:30am - - - - - E 9 15 5 8 - - -
28/04:00am - - - - - ESE 11 15 6 8 - - -
28/03:30am - - - - - SE 13 17 7 9 - - -
28/03:00am - - - - - SE 11 17 6 9 - - -
28/02:30am - - - - - SE 13 17 7 9 - - -
28/02:00am - - - - - ESE 11 15 6 8 - - -
28/01:30am - - - - - ESE 11 15 6 8 - - -
28/01:00am - - - - - ESE 13 17 7 9 - - -
28/12:30am - - - - - SE 17 22 9 12 - - -
28/12:00am - - - - - ESE 11 15 6 8 - - -
 
Date/Time
EDT
Temp
°C
App
Temp
°C
Dew
Point
Rel
Hum
%
Delta-T
°C
Wind Press
QNH
hPa
Press
MSL
hPa
Rain
since 9 am
mm
Dir
 
Spd
km/h
Gust
km/h
Spd
kts
Gust
kts
27/11:30pm - - - - - ESE 9 15 5 8 - - -
27/11:00pm - - - - - SE 13 20 7 11 - - -
27/10:30pm - - - - - SE 13 17 7 9 - - -
27/10:00pm - - - - - SE 13 22 7 12 - - -
27/09:30pm - - - - - SSE 22 28 12 15 - - -
27/09:00pm - - - - - SSE 22 28 12 15 - - -
27/08:30pm - - - - - SSE 24 30 13 16 - - -
27/08:00pm - - - - - S 28 33 15 18 - - -
27/07:30pm - - - - - S 30 37 16 20 - - -
27/07:00pm - - - - - S 32 37 17 20 - - -
27/06:30pm - - - - - S 32 35 17 19 - - -
27/06:00pm - - - - - S 32 37 17 20 - - -
27/05:30pm - - - - - S 32 37 17 20 - - -
27/05:00pm - - - - - S 33 39 18 21 - - -
27/04:30pm - - - - - S 33 39 18 21 - - -
27/04:00pm - - - - - S 35 41 19 22 - - -
27/03:30pm - - - - - S 33 39 18 21 - - -
27/03:00pm - - - - - SSW 33 41 18 22 - - -
27/02:30pm - - - - - S 33 39 18 21 - - -
27/02:00pm - - - - - S 30 37 16 20 - - -
27/01:30pm - - - - - S 30 35 16 19 - - -
27/01:00pm - - - - - S 28 35 15 19 - - -
27/12:30pm - - - - - S 28 35 15 19 - - -
27/12:00pm - - - - - S 26 30 14 16 - - -
27/11:30am - - - - - S 26 32 14 17 - - -
27/11:00am - - - - - S 20 28 11 15 - - -
27/10:30am - - - - - S 19 28 10 15 - - -
27/10:00am - - - - - S 20 28 11 15 - - -
27/09:30am - - - - - S 26 33 14 18 - - -
27/09:00am - - - - - S 22 30 12 16 - - -
27/08:30am - - - - - SSE 20 28 11 15 - - -
27/08:00am - - - - - SE 17 24 9 13 - - -
27/07:30am - - - - - SE 15 20 8 11 - - -
27/07:00am - - - - - SE 15 20 8 11 - - -
27/06:30am - - - - - S 20 32 11 17 - - -
27/06:00am - - - - - SE 13 20 7 11 - - -
27/05:30am - - - - - SE 17 22 9 12 - - -
27/05:00am - - - - - SE 20 28 11 15 - - -
27/04:30am - - - - - SE 13 20 7 11 - - -
27/04:00am - - - - - SSE 20 28 11 15 - - -
27/03:30am - - - - - SSE 20 28 11 15 - - -
27/03:00am - - - - - SSE 19 24 10 13 - - -
27/02:30am - - - - - SE 17 26 9 14 - - -
27/02:00am - - - - - SE 17 22 9 12 - - -
27/01:30am - - - - - SE 19 26 10 14 - - -
27/01:00am - - - - - SE 15 24 8 13 - - -
27/12:30am - - - - - S 20 30 11 16 - - -
27/12:00am - - - - - S 28 35 15 19 - - -
 
Date/Time
EDT
Temp
°C
App
Temp
°C
Dew
Point
Rel
Hum
%
Delta-T
°C
Wind Press
QNH
hPa
Press
MSL
hPa
Rain
since 9 am
mm
Dir
 
Spd
km/h
Gust
km/h
Spd
kts
Gust
kts
26/11:30pm - - - - - S 30 37 16 20 - - -
26/11:00pm - - - - - S 28 35 15 19 - - -
26/10:30pm - - - - - S 32 41 17 22 - - -
26/10:00pm - - - - - S 30 43 16 23 - - -
26/09:30pm - - - - - S 32 39 17 21 - - -
26/09:00pm - - - - - S 30 37 16 20 - - -
26/08:30pm - - - - - S 33 44 18 24 - - -
26/08:00pm - - - - - S 32 37 17 20 - - -
26/07:30pm - - - - - S 28 37 15 20 - - -
26/07:00pm - - - - - S 28 35 15 19 - - -
26/06:30pm - - - - - S 33 43 18 23 - - -

Other Formats:

Comma delimited format used in spreadsheet applications
http://www.bom.gov.au/fwo/IDV60801/IDV60801.95864.axf

JavaScript Object Notation format (JSON) in row-major order
http://www.bom.gov.au/fwo/IDV60801/IDV60801.95864.json